sensor_id;sensor_type;location;lat;lon;timestamp;P1;durP1;ratioP1;P2;durP2;ratioP2
39612;SDS011;25303;48.896;13.342;2023-08-08T00:01:42;3.28;;;1.95;;
39612;SDS011;25303;48.896;13.342;2023-08-08T00:04:26;2.65;;;1.75;;
39612;SDS011;25303;48.896;13.342;2023-08-08T00:07:09;5.53;;;1.60;;
39612;SDS011;25303;48.896;13.342;2023-08-08T00:09:52;2.78;;;1.58;;
39612;SDS011;25303;48.896;13.342;2023-08-08T00:12:35;2.40;;;1.40;;
39612;SDS011;25303;48.896;13.342;2023-08-08T00:15:18;2.28;;;1.60;;
39612;SDS011;25303;48.896;13.342;2023-08-08T00:18:01;2.58;;;1.58;;
39612;SDS011;25303;48.896;13.342;2023-08-08T00:20:45;2.03;;;1.35;;
39612;SDS011;25303;48.896;13.342;2023-08-08T00:23:28;1.98;;;1.38;;
39612;SDS011;25303;48.896;13.342;2023-08-08T00:26:11;1.98;;;1.42;;
39612;SDS011;25303;48.896;13.342;2023-08-08T00:28:54;5.20;;;1.85;;
39612;SDS011;25303;48.896;13.342;2023-08-08T00:31:37;3.03;;;1.30;;
39612;SDS011;25303;48.896;13.342;2023-08-08T00:34:20;2.38;;;1.42;;
39612;SDS011;25303;48.896;13.342;2023-08-08T00:37:04;2.90;;;1.60;;
39612;SDS011;25303;48.896;13.342;2023-08-08T00:39:47;5.20;;;1.70;;
39612;SDS011;25303;48.896;13.342;2023-08-08T00:42:30;3.95;;;2.55;;
39612;SDS011;25303;48.896;13.342;2023-08-08T00:45:13;3.10;;;1.80;;
39612;SDS011;25303;48.896;13.342;2023-08-08T00:47:56;2.85;;;1.85;;
39612;SDS011;25303;48.896;13.342;2023-08-08T00:50:41;2.50;;;1.70;;
39612;SDS011;25303;48.896;13.342;2023-08-08T00:53:27;3.80;;;2.00;;
39612;SDS011;25303;48.896;13.342;2023-08-08T00:56:13;5.03;;;2.60;;
39612;SDS011;25303;48.896;13.342;2023-08-08T00:58:58;3.97;;;2.08;;
39612;SDS011;25303;48.896;13.342;2023-08-08T01:01:41;4.75;;;2.80;;
39612;SDS011;25303;48.896;13.342;2023-08-08T01:04:24;4.50;;;2.90;;
39612;SDS011;25303;48.896;13.342;2023-08-08T01:07:12;2.92;;;2.10;;
39612;SDS011;25303;48.896;13.342;2023-08-08T01:10:06;3.38;;;2.22;;
39612;SDS011;25303;48.896;13.342;2023-08-08T01:12:52;2.65;;;2.15;;
39612;SDS011;25303;48.896;13.342;2023-08-08T01:15:38;3.30;;;1.85;;
39612;SDS011;25303;48.896;13.342;2023-08-08T01:18:22;3.25;;;2.03;;
39612;SDS011;25303;48.896;13.342;2023-08-08T01:21:05;2.58;;;2.03;;
39612;SDS011;25303;48.896;13.342;2023-08-08T01:23:52;3.33;;;2.20;;
39612;SDS011;25303;48.896;13.342;2023-08-08T01:26:39;4.20;;;2.67;;
39612;SDS011;25303;48.896;13.342;2023-08-08T01:29:23;2.85;;;2.15;;
39612;SDS011;25303;48.896;13.342;2023-08-08T01:32:06;3.85;;;2.42;;
39612;SDS011;25303;48.896;13.342;2023-08-08T01:34:50;4.18;;;2.92;;
39612;SDS011;25303;48.896;13.342;2023-08-08T01:37:35;3.88;;;2.55;;
39612;SDS011;25303;48.896;13.342;2023-08-08T01:40:21;3.15;;;2.30;;
39612;SDS011;25303;48.896;13.342;2023-08-08T01:43:08;3.35;;;2.25;;
39612;SDS011;25303;48.896;13.342;2023-08-08T01:45:51;3.60;;;2.50;;
39612;SDS011;25303;48.896;13.342;2023-08-08T01:48:35;3.33;;;2.30;;
39612;SDS011;25303;48.896;13.342;2023-08-08T01:51:18;4.15;;;2.47;;
39612;SDS011;25303;48.896;13.342;2023-08-08T01:54:02;4.00;;;3.10;;
39612;SDS011;25303;48.896;13.342;2023-08-08T01:56:45;3.92;;;2.45;;
39612;SDS011;25303;48.896;13.342;2023-08-08T01:59:29;2.50;;;1.70;;
39612;SDS011;25303;48.896;13.342;2023-08-08T02:02:12;3.80;;;2.17;;
39612;SDS011;25303;48.896;13.342;2023-08-08T02:04:56;3.15;;;2.38;;
39612;SDS011;25303;48.896;13.342;2023-08-08T02:07:39;3.17;;;2.10;;
39612;SDS011;25303;48.896;13.342;2023-08-08T02:10:22;3.97;;;2.17;;
39612;SDS011;25303;48.896;13.342;2023-08-08T02:13:05;3.10;;;2.25;;
39612;SDS011;25303;48.896;13.342;2023-08-08T02:15:49;2.72;;;2.05;;
39612;SDS011;25303;48.896;13.342;2023-08-08T02:18:34;3.45;;;2.30;;
39612;SDS011;25303;48.896;13.342;2023-08-08T02:21:17;3.40;;;2.40;;
39612;SDS011;25303;48.896;13.342;2023-08-08T02:24:00;4.00;;;2.58;;
39612;SDS011;25303;48.896;13.342;2023-08-08T02:26:43;3.83;;;2.25;;
39612;SDS011;25303;48.896;13.342;2023-08-08T02:29:26;5.10;;;2.28;;
39612;SDS011;25303;48.896;13.342;2023-08-08T02:32:10;3.13;;;2.25;;
39612;SDS011;25303;48.896;13.342;2023-08-08T02:34:54;3.45;;;2.20;;
39612;SDS011;25303;48.896;13.342;2023-08-08T02:37:38;3.50;;;2.40;;
39612;SDS011;25303;48.896;13.342;2023-08-08T02:40:23;3.28;;;2.40;;
39612;SDS011;25303;48.896;13.342;2023-08-08T02:45:52;3.50;;;2.67;;
39612;SDS011;25303;48.896;13.342;2023-08-08T02:48:37;4.25;;;2.67;;
39612;SDS011;25303;48.896;13.342;2023-08-08T02:51:20;3.80;;;2.65;;
39612;SDS011;25303;48.896;13.342;2023-08-08T02:54:03;4.97;;;2.80;;
39612;SDS011;25303;48.896;13.342;2023-08-08T02:56:48;3.88;;;2.45;;
39612;SDS011;25303;48.896;13.342;2023-08-08T02:59:32;3.95;;;2.15;;
39612;SDS011;25303;48.896;13.342;2023-08-08T03:02:18;3.55;;;2.08;;
39612;SDS011;25303;48.896;13.342;2023-08-08T03:05:03;3.17;;;2.20;;
39612;SDS011;25303;48.896;13.342;2023-08-08T03:07:47;3.78;;;2.28;;
39612;SDS011;25303;48.896;13.342;2023-08-08T03:10:30;4.60;;;2.42;;
39612;SDS011;25303;48.896;13.342;2023-08-08T03:13:13;3.25;;;2.33;;
39612;SDS011;25303;48.896;13.342;2023-08-08T03:15:56;2.97;;;1.95;;
39612;SDS011;25303;48.896;13.342;2023-08-08T03:18:39;4.88;;;2.20;;
39612;SDS011;25303;48.896;13.342;2023-08-08T03:21:24;3.25;;;2.47;;
39612;SDS011;25303;48.896;13.342;2023-08-08T03:24:07;3.28;;;2.30;;
39612;SDS011;25303;48.896;13.342;2023-08-08T03:26:50;2.78;;;2.08;;
39612;SDS011;25303;48.896;13.342;2023-08-08T03:29:33;3.15;;;2.40;;
39612;SDS011;25303;48.896;13.342;2023-08-08T03:32:16;3.60;;;2.47;;
39612;SDS011;25303;48.896;13.342;2023-08-08T03:34:59;3.55;;;2.40;;
39612;SDS011;25303;48.896;13.342;2023-08-08T03:37:44;3.33;;;2.40;;
39612;SDS011;25303;48.896;13.342;2023-08-08T03:40:27;4.18;;;2.05;;
39612;SDS011;25303;48.896;13.342;2023-08-08T03:43:10;3.35;;;1.90;;
39612;SDS011;25303;48.896;13.342;2023-08-08T03:45:53;4.28;;;1.83;;
39612;SDS011;25303;48.896;13.342;2023-08-08T03:48:36;3.38;;;2.33;;
39612;SDS011;25303;48.896;13.342;2023-08-08T03:51:19;2.58;;;1.73;;
39612;SDS011;25303;48.896;13.342;2023-08-08T03:54:03;2.92;;;1.75;;
39612;SDS011;25303;48.896;13.342;2023-08-08T03:56:47;2.60;;;1.90;;
39612;SDS011;25303;48.896;13.342;2023-08-08T03:59:29;2.80;;;2.08;;
39612;SDS011;25303;48.896;13.342;2023-08-08T04:02:12;4.50;;;2.22;;
39612;SDS011;25303;48.896;13.342;2023-08-08T04:04:55;3.47;;;2.50;;
39612;SDS011;25303;48.896;13.342;2023-08-08T04:07:38;2.42;;;1.75;;
39612;SDS011;25303;48.896;13.342;2023-08-08T04:10:23;4.43;;;2.95;;
39612;SDS011;25303;48.896;13.342;2023-08-08T04:13:06;3.13;;;2.58;;
39612;SDS011;25303;48.896;13.342;2023-08-08T04:15:50;3.72;;;2.30;;
39612;SDS011;25303;48.896;13.342;2023-08-08T04:18:33;2.15;;;1.70;;
39612;SDS011;25303;48.896;13.342;2023-08-08T04:21:16;3.28;;;1.88;;
39612;SDS011;25303;48.896;13.342;2023-08-08T04:23:59;3.33;;;1.67;;
39612;SDS011;25303;48.896;13.342;2023-08-08T04:26:43;2.78;;;1.92;;
39612;SDS011;25303;48.896;13.342;2023-08-08T04:29:26;2.78;;;1.95;;
39612;SDS011;25303;48.896;13.342;2023-08-08T04:32:09;2.45;;;2.08;;
39612;SDS011;25303;48.896;13.342;2023-08-08T04:34:52;3.90;;;2.08;;
39612;SDS011;25303;48.896;13.342;2023-08-08T04:37:35;3.95;;;1.92;;
39612;SDS011;25303;48.896;13.342;2023-08-08T04:40:18;2.55;;;1.98;;
39612;SDS011;25303;48.896;13.342;2023-08-08T04:43:02;3.35;;;2.17;;
39612;SDS011;25303;48.896;13.342;2023-08-08T04:45:45;2.97;;;2.22;;
39612;SDS011;25303;48.896;13.342;2023-08-08T04:48:28;3.25;;;2.10;;
39612;SDS011;25303;48.896;13.342;2023-08-08T04:51:11;4.20;;;2.30;;
39612;SDS011;25303;48.896;13.342;2023-08-08T04:53:54;3.00;;;2.20;;
39612;SDS011;25303;48.896;13.342;2023-08-08T04:56:37;3.58;;;2.28;;
39612;SDS011;25303;48.896;13.342;2023-08-08T04:59:21;3.20;;;2.10;;
39612;SDS011;25303;48.896;13.342;2023-08-08T05:02:04;2.95;;;2.00;;
39612;SDS011;25303;48.896;13.342;2023-08-08T05:04:47;3.65;;;2.05;;
39612;SDS011;25303;48.896;13.342;2023-08-08T05:07:31;3.63;;;1.90;;
39612;SDS011;25303;48.896;13.342;2023-08-08T05:10:14;3.08;;;2.10;;
39612;SDS011;25303;48.896;13.342;2023-08-08T05:12:57;4.15;;;1.80;;
39612;SDS011;25303;48.896;13.342;2023-08-08T05:15:42;2.13;;;1.60;;
39612;SDS011;25303;48.896;13.342;2023-08-08T05:18:25;2.60;;;1.75;;
39612;SDS011;25303;48.896;13.342;2023-08-08T05:21:07;3.55;;;1.75;;
39612;SDS011;25303;48.896;13.342;2023-08-08T05:23:50;2.55;;;1.95;;
39612;SDS011;25303;48.896;13.342;2023-08-08T05:26:33;3.45;;;1.90;;
39612;SDS011;25303;48.896;13.342;2023-08-08T05:29:16;3.00;;;1.60;;
39612;SDS011;25303;48.896;13.342;2023-08-08T05:32:00;2.17;;;1.40;;
39612;SDS011;25303;48.896;13.342;2023-08-08T05:34:45;3.15;;;1.70;;
39612;SDS011;25303;48.896;13.342;2023-08-08T05:37:28;1.55;;;1.25;;
39612;SDS011;25303;48.896;13.342;2023-08-08T05:40:11;2.25;;;1.60;;
39612;SDS011;25303;48.896;13.342;2023-08-08T05:42:54;2.72;;;1.70;;
39612;SDS011;25303;48.896;13.342;2023-08-08T05:45:37;3.08;;;1.80;;
39612;SDS011;25303;48.896;13.342;2023-08-08T05:48:21;2.90;;;1.92;;
39612;SDS011;25303;48.896;13.342;2023-08-08T05:51:04;2.70;;;1.73;;
39612;SDS011;25303;48.896;13.342;2023-08-08T05:53:47;3.38;;;2.10;;
39612;SDS011;25303;48.896;13.342;2023-08-08T05:56:34;3.13;;;2.30;;
39612;SDS011;25303;48.896;13.342;2023-08-08T05:59:18;1.95;;;1.73;;
39612;SDS011;25303;48.896;13.342;2023-08-08T06:02:01;4.00;;;1.88;;
39612;SDS011;25303;48.896;13.342;2023-08-08T06:04:46;3.90;;;1.90;;
39612;SDS011;25303;48.896;13.342;2023-08-08T06:07:28;1.88;;;1.58;;
39612;SDS011;25303;48.896;13.342;2023-08-08T06:10:11;2.95;;;1.63;;
39612;SDS011;25303;48.896;13.342;2023-08-08T06:12:54;3.15;;;1.98;;
39612;SDS011;25303;48.896;13.342;2023-08-08T06:15:37;2.55;;;1.60;;
39612;SDS011;25303;48.896;13.342;2023-08-08T06:18:20;2.78;;;1.60;;
39612;SDS011;25303;48.896;13.342;2023-08-08T06:21:04;1.98;;;1.55;;
39612;SDS011;25303;48.896;13.342;2023-08-08T06:26:31;2.65;;;1.50;;
39612;SDS011;25303;48.896;13.342;2023-08-08T06:29:14;2.47;;;1.67;;
39612;SDS011;25303;48.896;13.342;2023-08-08T06:31:57;2.22;;;1.63;;
39612;SDS011;25303;48.896;13.342;2023-08-08T06:34:41;2.92;;;1.50;;
39612;SDS011;25303;48.896;13.342;2023-08-08T06:37:25;2.63;;;1.77;;
39612;SDS011;25303;48.896;13.342;2023-08-08T06:40:08;3.00;;;1.40;;
39612;SDS011;25303;48.896;13.342;2023-08-08T06:42:52;1.95;;;1.27;;
39612;SDS011;25303;48.896;13.342;2023-08-08T06:45:36;2.10;;;1.48;;
39612;SDS011;25303;48.896;13.342;2023-08-08T06:48:19;2.67;;;1.20;;
39612;SDS011;25303;48.896;13.342;2023-08-08T06:51:02;2.10;;;1.48;;
39612;SDS011;25303;48.896;13.342;2023-08-08T06:53:46;2.28;;;1.42;;
39612;SDS011;25303;48.896;13.342;2023-08-08T06:56:29;2.63;;;1.80;;
39612;SDS011;25303;48.896;13.342;2023-08-08T06:59:12;2.28;;;1.70;;
39612;SDS011;25303;48.896;13.342;2023-08-08T07:01:55;2.55;;;2.10;;
39612;SDS011;25303;48.896;13.342;2023-08-08T07:04:38;2.22;;;1.65;;
39612;SDS011;25303;48.896;13.342;2023-08-08T07:07:21;3.42;;;2.08;;
39612;SDS011;25303;48.896;13.342;2023-08-08T07:10:06;3.17;;;1.83;;
39612;SDS011;25303;48.896;13.342;2023-08-08T07:12:51;2.58;;;1.90;;
39612;SDS011;25303;48.896;13.342;2023-08-08T07:15:33;2.53;;;2.00;;
39612;SDS011;25303;48.896;13.342;2023-08-08T07:18:16;3.75;;;2.20;;
39612;SDS011;25303;48.896;13.342;2023-08-08T07:20:59;2.45;;;1.75;;
39612;SDS011;25303;48.896;13.342;2023-08-08T07:23:42;3.60;;;2.10;;
39612;SDS011;25303;48.896;13.342;2023-08-08T07:26:27;2.50;;;1.83;;
39612;SDS011;25303;48.896;13.342;2023-08-08T07:29:09;2.47;;;1.80;;
39612;SDS011;25303;48.896;13.342;2023-08-08T07:31:52;3.22;;;1.92;;
39612;SDS011;25303;48.896;13.342;2023-08-08T07:34:35;2.55;;;1.80;;
39612;SDS011;25303;48.896;13.342;2023-08-08T07:37:18;2.30;;;1.80;;
39612;SDS011;25303;48.896;13.342;2023-08-08T07:40:01;2.55;;;1.70;;
39612;SDS011;25303;48.896;13.342;2023-08-08T07:42:46;4.10;;;2.33;;
39612;SDS011;25303;48.896;13.342;2023-08-08T07:45:30;4.32;;;2.47;;
39612;SDS011;25303;48.896;13.342;2023-08-08T07:48:13;3.35;;;2.17;;
39612;SDS011;25303;48.896;13.342;2023-08-08T07:50:57;3.30;;;2.60;;
39612;SDS011;25303;48.896;13.342;2023-08-08T07:53:39;3.30;;;1.92;;
39612;SDS011;25303;48.896;13.342;2023-08-08T07:56:25;3.38;;;2.35;;
39612;SDS011;25303;48.896;13.342;2023-08-08T07:59:09;3.53;;;2.22;;
39612;SDS011;25303;48.896;13.342;2023-08-08T08:01:52;2.83;;;2.13;;
39612;SDS011;25303;48.896;13.342;2023-08-08T08:04:35;2.90;;;2.20;;
39612;SDS011;25303;48.896;13.342;2023-08-08T08:07:18;3.35;;;1.80;;
39612;SDS011;25303;48.896;13.342;2023-08-08T08:10:01;3.45;;;2.55;;
39612;SDS011;25303;48.896;13.342;2023-08-08T08:12:45;4.35;;;2.85;;
39612;SDS011;25303;48.896;13.342;2023-08-08T08:15:29;4.57;;;3.38;;
39612;SDS011;25303;48.896;13.342;2023-08-08T08:18:13;2.75;;;2.17;;
39612;SDS011;25303;48.896;13.342;2023-08-08T08:21:00;2.75;;;1.70;;
39612;SDS011;25303;48.896;13.342;2023-08-08T08:23:43;3.45;;;2.08;;
39612;SDS011;25303;48.896;13.342;2023-08-08T08:26:26;2.15;;;1.90;;
39612;SDS011;25303;48.896;13.342;2023-08-08T08:29:09;5.93;;;2.85;;
39612;SDS011;25303;48.896;13.342;2023-08-08T08:31:53;3.05;;;2.20;;
39612;SDS011;25303;48.896;13.342;2023-08-08T08:34:36;3.20;;;1.90;;
39612;SDS011;25303;48.896;13.342;2023-08-08T08:37:19;2.50;;;1.80;;
39612;SDS011;25303;48.896;13.342;2023-08-08T08:40:02;3.20;;;1.77;;
39612;SDS011;25303;48.896;13.342;2023-08-08T08:42:46;3.50;;;2.00;;
39612;SDS011;25303;48.896;13.342;2023-08-08T08:45:30;3.67;;;2.63;;
39612;SDS011;25303;48.896;13.342;2023-08-08T08:48:15;6.63;;;3.33;;
39612;SDS011;25303;48.896;13.342;2023-08-08T08:51:00;9.63;;;5.53;;
39612;SDS011;25303;48.896;13.342;2023-08-08T08:53:44;5.25;;;2.88;;
39612;SDS011;25303;48.896;13.342;2023-08-08T08:56:28;3.53;;;2.10;;
39612;SDS011;25303;48.896;13.342;2023-08-08T08:59:11;2.27;;;1.50;;
39612;SDS011;25303;48.896;13.342;2023-08-08T09:01:54;2.05;;;1.33;;
39612;SDS011;25303;48.896;13.342;2023-08-08T09:04:40;3.92;;;1.35;;
39612;SDS011;25303;48.896;13.342;2023-08-08T09:07:23;2.78;;;1.20;;
39612;SDS011;25303;48.896;13.342;2023-08-08T09:10:09;1.48;;;1.20;;
39612;SDS011;25303;48.896;13.342;2023-08-08T09:12:52;1.40;;;1.10;;
39612;SDS011;25303;48.896;13.342;2023-08-08T09:15:35;3.78;;;1.60;;
39612;SDS011;25303;48.896;13.342;2023-08-08T09:18:18;2.97;;;1.40;;
39612;SDS011;25303;48.896;13.342;2023-08-08T09:21:02;3.13;;;1.05;;
39612;SDS011;25303;48.896;13.342;2023-08-08T09:23:45;3.40;;;1.20;;
39612;SDS011;25303;48.896;13.342;2023-08-08T09:26:28;1.88;;;1.08;;
39612;SDS011;25303;48.896;13.342;2023-08-08T09:29:12;2.58;;;1.40;;
39612;SDS011;25303;48.896;13.342;2023-08-08T09:31:56;1.80;;;1.10;;
39612;SDS011;25303;48.896;13.342;2023-08-08T09:34:40;2.25;;;0.85;;
39612;SDS011;25303;48.896;13.342;2023-08-08T09:37:25;1.40;;;0.97;;
39612;SDS011;25303;48.896;13.342;2023-08-08T09:42:53;2.53;;;1.27;;
39612;SDS011;25303;48.896;13.342;2023-08-08T09:45:36;4.35;;;1.40;;
39612;SDS011;25303;48.896;13.342;2023-08-08T09:48:20;2.33;;;1.03;;
39612;SDS011;25303;48.896;13.342;2023-08-08T09:51:03;2.75;;;1.13;;
39612;SDS011;25303;48.896;13.342;2023-08-08T09:53:48;2.15;;;1.20;;
39612;SDS011;25303;48.896;13.342;2023-08-08T09:56:31;2.97;;;0.93;;
39612;SDS011;25303;48.896;13.342;2023-08-08T09:59:16;1.85;;;1.08;;
39612;SDS011;25303;48.896;13.342;2023-08-08T10:01:59;2.50;;;1.50;;
39612;SDS011;25303;48.896;13.342;2023-08-08T10:04:44;1.75;;;1.50;;
39612;SDS011;25303;48.896;13.342;2023-08-08T10:07:27;2.58;;;1.55;;
39612;SDS011;25303;48.896;13.342;2023-08-08T10:10:11;2.92;;;1.45;;
39612;SDS011;25303;48.896;13.342;2023-08-08T10:12:54;2.38;;;1.67;;
39612;SDS011;25303;48.896;13.342;2023-08-08T10:15:37;3.20;;;1.88;;
39612;SDS011;25303;48.896;13.342;2023-08-08T10:18:21;1.70;;;1.40;;
39612;SDS011;25303;48.896;13.342;2023-08-08T10:21:05;3.20;;;1.33;;
39612;SDS011;25303;48.896;13.342;2023-08-08T10:24:00;2.55;;;1.30;;
39612;SDS011;25303;48.896;13.342;2023-08-08T10:26:52;2.70;;;1.45;;
39612;SDS011;25303;48.896;13.342;2023-08-08T10:29:37;1.90;;;1.45;;
39612;SDS011;25303;48.896;13.342;2023-08-08T10:32:21;2.72;;;1.48;;
39612;SDS011;25303;48.896;13.342;2023-08-08T10:35:07;3.38;;;1.75;;
39612;SDS011;25303;48.896;13.342;2023-08-08T10:37:54;2.10;;;1.40;;
39612;SDS011;25303;48.896;13.342;2023-08-08T10:40:42;3.97;;;1.70;;
39612;SDS011;25303;48.896;13.342;2023-08-08T10:43:27;3.67;;;2.10;;
39612;SDS011;25303;48.896;13.342;2023-08-08T10:46:11;3.22;;;2.15;;
39612;SDS011;25303;48.896;13.342;2023-08-08T10:48:56;2.50;;;1.77;;
39612;SDS011;25303;48.896;13.342;2023-08-08T10:51:41;3.42;;;1.90;;
39612;SDS011;25303;48.896;13.342;2023-08-08T10:54:28;5.00;;;1.63;;
39612;SDS011;25303;48.896;13.342;2023-08-08T10:57:15;3.23;;;1.60;;
39612;SDS011;25303;48.896;13.342;2023-08-08T11:05:50;2.75;;;1.30;;
39612;SDS011;25303;48.896;13.342;2023-08-08T11:08:34;2.53;;;1.37;;
39612;SDS011;25303;48.896;13.342;2023-08-08T11:11:17;2.60;;;1.10;;
39612;SDS011;25303;48.896;13.342;2023-08-08T11:14:00;1.63;;;1.00;;
39612;SDS011;25303;48.896;13.342;2023-08-08T11:16:53;2.30;;;1.20;;
39612;SDS011;25303;48.896;13.342;2023-08-08T11:19:38;3.05;;;1.20;;
39612;SDS011;25303;48.896;13.342;2023-08-08T11:22:22;2.90;;;1.20;;
39612;SDS011;25303;48.896;13.342;2023-08-08T11:25:05;1.75;;;1.15;;
39612;SDS011;25303;48.896;13.342;2023-08-08T11:27:49;2.47;;;1.40;;
39612;SDS011;25303;48.896;13.342;2023-08-08T11:30:34;2.30;;;0.85;;
39612;SDS011;25303;48.896;13.342;2023-08-08T11:33:20;1.20;;;0.80;;
39612;SDS011;25303;48.896;13.342;2023-08-08T11:36:04;3.08;;;1.10;;
39612;SDS011;25303;48.896;13.342;2023-08-08T11:38:49;2.53;;;1.20;;
39612;SDS011;25303;48.896;13.342;2023-08-08T11:41:33;1.52;;;1.00;;
39612;SDS011;25303;48.896;13.342;2023-08-08T11:44:17;1.25;;;0.90;;
39612;SDS011;25303;48.896;13.342;2023-08-08T11:47:00;2.28;;;0.95;;
39612;SDS011;25303;48.896;13.342;2023-08-08T11:49:48;2.30;;;1.17;;
39612;SDS011;25303;48.896;13.342;2023-08-08T11:52:34;1.85;;;1.00;;
39612;SDS011;25303;48.896;13.342;2023-08-08T11:55:17;1.98;;;0.90;;
39612;SDS011;25303;48.896;13.342;2023-08-08T11:58:03;1.60;;;0.88;;
39612;SDS011;25303;48.896;13.342;2023-08-08T12:00:47;3.55;;;1.50;;
39612;SDS011;25303;48.896;13.342;2023-08-08T12:03:30;4.55;;;2.05;;
39612;SDS011;25303;48.896;13.342;2023-08-08T12:06:14;5.15;;;3.75;;
39612;SDS011;25303;48.896;13.342;2023-08-08T12:08:57;2.95;;;1.80;;
39612;SDS011;25303;48.896;13.342;2023-08-08T12:11:41;2.55;;;1.40;;
39612;SDS011;25303;48.896;13.342;2023-08-08T12:14:26;4.15;;;1.20;;
39612;SDS011;25303;48.896;13.342;2023-08-08T12:17:09;2.67;;;1.08;;
39612;SDS011;25303;48.896;13.342;2023-08-08T12:19:52;1.50;;;1.15;;
39612;SDS011;25303;48.896;13.342;2023-08-08T12:22:36;2.58;;;0.90;;
39612;SDS011;25303;48.896;13.342;2023-08-08T12:25:19;3.65;;;1.10;;
39612;SDS011;25303;48.896;13.342;2023-08-08T12:28:02;1.83;;;1.10;;
39612;SDS011;25303;48.896;13.342;2023-08-08T12:30:46;1.50;;;0.95;;
39612;SDS011;25303;48.896;13.342;2023-08-08T12:33:29;2.53;;;1.02;;
39612;SDS011;25303;48.896;13.342;2023-08-08T12:36:12;1.95;;;0.90;;
39612;SDS011;25303;48.896;13.342;2023-08-08T12:38:57;1.10;;;0.77;;
39612;SDS011;25303;48.896;13.342;2023-08-08T12:41:40;2.22;;;1.20;;
39612;SDS011;25303;48.896;13.342;2023-08-08T12:44:23;3.00;;;1.00;;
39612;SDS011;25303;48.896;13.342;2023-08-08T12:47:06;3.17;;;1.92;;
39612;SDS011;25303;48.896;13.342;2023-08-08T12:49:49;1.85;;;1.15;;
39612;SDS011;25303;48.896;13.342;2023-08-08T12:52:32;2.17;;;1.00;;
39612;SDS011;25303;48.896;13.342;2023-08-08T12:55:16;1.70;;;0.98;;
39612;SDS011;25303;48.896;13.342;2023-08-08T12:57:59;1.88;;;0.80;;
39612;SDS011;25303;48.896;13.342;2023-08-08T13:00:42;2.53;;;1.17;;
39612;SDS011;25303;48.896;13.342;2023-08-08T13:03:26;2.28;;;1.00;;
39612;SDS011;25303;48.896;13.342;2023-08-08T13:06:11;2.63;;;1.23;;
39612;SDS011;25303;48.896;13.342;2023-08-08T13:08:54;1.48;;;0.75;;
39612;SDS011;25303;48.896;13.342;2023-08-08T13:11:39;1.73;;;1.00;;
39612;SDS011;25303;48.896;13.342;2023-08-08T13:14:22;2.65;;;0.95;;
39612;SDS011;25303;48.896;13.342;2023-08-08T13:17:05;2.50;;;1.10;;
39612;SDS011;25303;48.896;13.342;2023-08-08T13:19:48;1.50;;;0.90;;
39612;SDS011;25303;48.896;13.342;2023-08-08T13:22:30;2.08;;;1.00;;
39612;SDS011;25303;48.896;13.342;2023-08-08T13:25:13;2.28;;;1.00;;
39612;SDS011;25303;48.896;13.342;2023-08-08T13:27:58;1.95;;;0.85;;
39612;SDS011;25303;48.896;13.342;2023-08-08T13:30:42;3.63;;;1.00;;
39612;SDS011;25303;48.896;13.342;2023-08-08T13:33:25;3.13;;;0.88;;
39612;SDS011;25303;48.896;13.342;2023-08-08T13:36:08;2.78;;;0.80;;
39612;SDS011;25303;48.896;13.342;2023-08-08T13:38:51;1.73;;;0.90;;
39612;SDS011;25303;48.896;13.342;2023-08-08T13:41:35;2.25;;;1.10;;
39612;SDS011;25303;48.896;13.342;2023-08-08T13:44:20;2.55;;;1.20;;
39612;SDS011;25303;48.896;13.342;2023-08-08T13:47:03;2.53;;;1.23;;
39612;SDS011;25303;48.896;13.342;2023-08-08T13:49:46;3.05;;;1.10;;
39612;SDS011;25303;48.896;13.342;2023-08-08T13:52:28;2.78;;;0.90;;
39612;SDS011;25303;48.896;13.342;2023-08-08T13:55:14;2.78;;;0.90;;
39612;SDS011;25303;48.896;13.342;2023-08-08T13:57:57;1.77;;;1.15;;
39612;SDS011;25303;48.896;13.342;2023-08-08T14:00:41;2.15;;;1.00;;
39612;SDS011;25303;48.896;13.342;2023-08-08T14:03:24;1.83;;;0.85;;
39612;SDS011;25303;48.896;13.342;2023-08-08T14:06:07;1.48;;;1.00;;
39612;SDS011;25303;48.896;13.342;2023-08-08T14:08:50;2.25;;;0.90;;
39612;SDS011;25303;48.896;13.342;2023-08-08T14:11:34;2.55;;;1.10;;
39612;SDS011;25303;48.896;13.342;2023-08-08T14:14:17;3.88;;;1.17;;
39612;SDS011;25303;48.896;13.342;2023-08-08T14:17:01;2.15;;;1.08;;
39612;SDS011;25303;48.896;13.342;2023-08-08T14:19:44;2.10;;;1.00;;
39612;SDS011;25303;48.896;13.342;2023-08-08T14:22:27;3.00;;;1.17;;
39612;SDS011;25303;48.896;13.342;2023-08-08T14:25:10;2.90;;;1.08;;
39612;SDS011;25303;48.896;13.342;2023-08-08T14:27:53;2.05;;;1.02;;
39612;SDS011;25303;48.896;13.342;2023-08-08T14:33:22;2.47;;;1.00;;
39612;SDS011;25303;48.896;13.342;2023-08-08T14:36:04;1.40;;;0.90;;
39612;SDS011;25303;48.896;13.342;2023-08-08T14:38:48;2.67;;;0.98;;
39612;SDS011;25303;48.896;13.342;2023-08-08T14:41:31;2.47;;;2.00;;
39612;SDS011;25303;48.896;13.342;2023-08-08T14:44:14;2.50;;;1.40;;
39612;SDS011;25303;48.896;13.342;2023-08-08T14:46:57;2.47;;;1.20;;
39612;SDS011;25303;48.896;13.342;2023-08-08T14:49:41;2.40;;;1.08;;
39612;SDS011;25303;48.896;13.342;2023-08-08T14:52:24;3.15;;;1.70;;
39612;SDS011;25303;48.896;13.342;2023-08-08T14:55:07;4.55;;;2.72;;
39612;SDS011;25303;48.896;13.342;2023-08-08T14:57:50;3.38;;;1.77;;
39612;SDS011;25303;48.896;13.342;2023-08-08T15:00:34;3.05;;;1.80;;
39612;SDS011;25303;48.896;13.342;2023-08-08T15:03:16;2.13;;;1.17;;
39612;SDS011;25303;48.896;13.342;2023-08-08T15:06:05;1.85;;;0.95;;
39612;SDS011;25303;48.896;13.342;2023-08-08T15:08:58;2.80;;;1.10;;
39612;SDS011;25303;48.896;13.342;2023-08-08T15:11:42;2.15;;;1.20;;
39612;SDS011;25303;48.896;13.342;2023-08-08T15:14:25;2.25;;;1.20;;
39612;SDS011;25303;48.896;13.342;2023-08-08T15:17:08;1.60;;;0.98;;
39612;SDS011;25303;48.896;13.342;2023-08-08T15:19:51;3.42;;;1.77;;
39612;SDS011;25303;48.896;13.342;2023-08-08T15:22:35;5.10;;;3.50;;
39612;SDS011;25303;48.896;13.342;2023-08-08T15:25:18;4.28;;;2.28;;
39612;SDS011;25303;48.896;13.342;2023-08-08T15:28:01;2.55;;;1.52;;
39612;SDS011;25303;48.896;13.342;2023-08-08T15:30:45;1.60;;;1.15;;
39612;SDS011;25303;48.896;13.342;2023-08-08T15:33:27;1.50;;;1.08;;
39612;SDS011;25303;48.896;13.342;2023-08-08T15:36:10;4.63;;;3.78;;
39612;SDS011;25303;48.896;13.342;2023-08-08T15:38:55;5.07;;;2.08;;
39612;SDS011;25303;48.896;13.342;2023-08-08T15:41:37;2.55;;;1.70;;
39612;SDS011;25303;48.896;13.342;2023-08-08T15:44:20;2.58;;;1.42;;
39612;SDS011;25303;48.896;13.342;2023-08-08T15:47:03;4.85;;;1.13;;
39612;SDS011;25303;48.896;13.342;2023-08-08T15:49:47;1.80;;;0.88;;
39612;SDS011;25303;48.896;13.342;2023-08-08T15:52:30;1.30;;;0.90;;
39612;SDS011;25303;48.896;13.342;2023-08-08T15:55:14;2.63;;;1.10;;
39612;SDS011;25303;48.896;13.342;2023-08-08T15:57:57;1.48;;;1.00;;
39612;SDS011;25303;48.896;13.342;2023-08-08T16:00:40;3.15;;;1.40;;
39612;SDS011;25303;48.896;13.342;2023-08-08T16:03:23;2.58;;;1.50;;
39612;SDS011;25303;48.896;13.342;2023-08-08T16:06:06;2.25;;;1.00;;
39612;SDS011;25303;48.896;13.342;2023-08-08T16:08:49;1.70;;;0.90;;
39612;SDS011;25303;48.896;13.342;2023-08-08T16:11:33;2.05;;;0.98;;
39612;SDS011;25303;48.896;13.342;2023-08-08T16:14:16;1.63;;;1.08;;
39612;SDS011;25303;48.896;13.342;2023-08-08T16:16:59;2.25;;;0.98;;
39612;SDS011;25303;48.896;13.342;2023-08-08T16:19:44;2.00;;;0.90;;
39612;SDS011;25303;48.896;13.342;2023-08-08T16:22:27;1.80;;;0.90;;
39612;SDS011;25303;48.896;13.342;2023-08-08T16:25:10;2.08;;;1.52;;
39612;SDS011;25303;48.896;13.342;2023-08-08T16:27:55;8.40;;;4.82;;